createdAt,value
2022-12-19T00:00:08.128Z,89.38
2022-12-19T00:01:09.247Z,89.27
2022-12-19T00:01:56.428Z,88.77
2022-12-19T00:02:43.644Z,88.31
2022-12-19T00:03:32.369Z,88.14
2022-12-19T00:04:21.463Z,88.91
2022-12-19T00:05:08.453Z,89.38
2022-12-19T00:05:55.441Z,89.15
2022-12-19T00:06:43.782Z,89.58
2022-12-19T00:07:31.014Z,90.05
2022-12-19T00:08:18.210Z,89.97
2022-12-19T00:09:08.435Z,90.26
2022-12-19T00:09:55.455Z,90.67
2022-12-19T00:10:42.714Z,90.56
2022-12-19T00:11:30.118Z,90.14
2022-12-19T00:12:19.321Z,89.65
2022-12-19T00:13:06.354Z,89.44
2022-12-19T00:13:53.590Z,89.21
2022-12-19T00:14:40.642Z,89.30
2022-12-19T00:15:28.199Z,89.71
2022-12-19T00:16:20.166Z,89.91
2022-12-19T00:17:07.101Z,89.82
2022-12-19T00:17:54.385Z,89.46
2022-12-19T00:18:42.614Z,89.23
2022-12-19T00:19:29.753Z,89.44
2022-12-19T00:20:18.678Z,89.23
2022-12-19T00:21:06.297Z,89.31
2022-12-19T00:21:53.176Z,89.19
2022-12-19T00:22:40.155Z,89.08
2022-12-19T00:23:29.498Z,89.21
2022-12-19T00:24:20.724Z,89.02
2022-12-19T00:25:08.845Z,88.91
2022-12-19T00:25:56.605Z,88.83
2022-12-19T00:26:43.866Z,88.70
2022-12-19T00:27:34.857Z,88.39
2022-12-19T00:28:22.030Z,88.25
2022-12-19T00:29:14.121Z,88.04
2022-12-19T00:30:01.415Z,87.87
2022-12-19T00:30:48.384Z,87.81
2022-12-19T00:31:36.833Z,87.95
2022-12-19T00:32:23.775Z,87.88
2022-12-19T00:33:10.694Z,88.15
2022-12-19T00:33:58.068Z,88.08
2022-12-19T00:34:45.367Z,87.93
2022-12-19T00:35:32.267Z,87.60
2022-12-19T00:36:22.904Z,87.96
2022-12-19T00:37:12.077Z,87.96
2022-12-19T00:37:59.001Z,87.82
2022-12-19T00:38:46.587Z,87.54
2022-12-19T00:39:33.467Z,87.47
2022-12-19T00:40:20.425Z,87.43
2022-12-19T00:41:09.654Z,87.50
2022-12-19T00:41:56.523Z,87.46
2022-12-19T00:42:46.414Z,87.42
2022-12-19T00:43:35.725Z,87.65
2022-12-19T00:44:22.895Z,87.76
2022-12-19T00:45:18.754Z,87.55
2022-12-19T00:46:07.980Z,87.56
2022-12-19T00:46:54.946Z,87.89
2022-12-19T00:47:41.809Z,87.88
2022-12-19T00:48:29.291Z,87.69
2022-12-19T00:49:16.315Z,87.62
2022-12-19T00:50:04.505Z,87.37
2022-12-19T00:50:58.695Z,87.60
2022-12-19T00:51:45.745Z,87.89
2022-12-19T00:52:33.107Z,87.76
2022-12-19T00:53:21.093Z,87.35
2022-12-19T00:54:08.061Z,87.45
2022-12-19T00:54:55.458Z,87.45
2022-12-19T00:55:42.367Z,87.38
2022-12-19T00:56:33.505Z,86.80
2022-12-19T00:57:24.784Z,86.70
2022-12-19T00:58:11.644Z,86.46
2022-12-19T00:58:58.925Z,86.32
2022-12-19T00:59:45.897Z,85.97
2022-12-19T01:00:32.838Z,85.90
2022-12-19T01:01:24.658Z,85.71
2022-12-19T01:02:11.811Z,86.22
2022-12-19T01:02:59.012Z,86.48
2022-12-19T01:04:04.275Z,86.65
2022-12-19T01:04:53.255Z,86.47
2022-12-19T01:05:40.744Z,86.41
2022-12-19T01:06:29.659Z,86.25
2022-12-19T01:07:16.921Z,86.14
2022-12-19T01:08:03.886Z,86.03
2022-12-19T01:08:50.892Z,85.71
2022-12-19T01:09:37.978Z,85.73
2022-12-19T01:10:24.875Z,85.79
2022-12-19T01:11:12.016Z,85.98
2022-12-19T01:12:17.645Z,87.04
2022-12-19T01:13:04.494Z,88.19
2022-12-19T01:13:51.335Z,89.62
2022-12-19T01:14:38.276Z,89.56
2022-12-19T01:15:25.246Z,89.29
2022-12-19T01:16:13.767Z,89.44
2022-12-19T01:17:00.644Z,89.90
2022-12-19T01:17:48.826Z,89.99
2022-12-19T01:18:36.285Z,90.33
2022-12-19T01:19:23.175Z,90.40
2022-12-19T01:20:10.776Z,90.27
2022-12-19T01:21:00.077Z,89.75
2022-12-19T01:21:47.245Z,89.30
2022-12-19T01:22:35.344Z,89.23
2022-12-19T01:23:23.039Z,88.75
2022-12-19T01:24:09.996Z,88.47
2022-12-19T01:24:56.949Z,88.71
2022-12-19T01:25:45.879Z,88.52
2022-12-19T01:26:33.085Z,88.41
2022-12-19T01:27:19.976Z,88.27
2022-12-19T01:28:07.597Z,88.09
2022-12-19T01:28:54.534Z,87.67
2022-12-19T01:29:45.818Z,87.59
2022-12-19T01:30:40.698Z,87.93
2022-12-19T01:31:28.691Z,87.93
2022-12-19T01:32:15.604Z,87.87
2022-12-19T01:33:02.545Z,87.70
2022-12-19T01:33:49.475Z,87.59
2022-12-19T01:34:37.266Z,87.61
2022-12-19T01:35:24.556Z,87.33
2022-12-19T01:36:11.435Z,87.20
2022-12-19T01:36:58.296Z,86.80
2022-12-19T01:37:45.218Z,86.87
2022-12-19T01:38:32.126Z,86.68
2022-12-19T01:39:19.034Z,86.85
2022-12-19T01:40:06.583Z,86.59
2022-12-19T01:40:55.965Z,86.80
2022-12-19T01:41:42.980Z,86.76
2022-12-19T01:42:35.266Z,86.62
2022-12-19T01:43:23.436Z,86.92
2022-12-19T01:44:10.318Z,86.68
2022-12-19T01:45:10.325Z,86.46
2022-12-19T01:46:06.498Z,86.75
2022-12-19T01:46:57.754Z,86.76
2022-12-19T01:48:14.011Z,86.50
2022-12-19T01:49:01.707Z,86.47
2022-12-19T01:49:48.642Z,86.16
2022-12-19T01:51:01.480Z,86.09
2022-12-19T01:51:49.704Z,86.24
2022-12-19T01:52:36.594Z,86.44
2022-12-19T01:53:26.482Z,86.54
2022-12-19T01:54:21.236Z,86.95
2022-12-19T01:55:09.026Z,87.11
2022-12-19T01:55:56.278Z,87.38
2022-12-19T01:56:46.693Z,87.33
2022-12-19T01:57:34.777Z,87.38
2022-12-19T01:58:24.329Z,87.44
2022-12-19T01:59:15.004Z,87.24
2022-12-19T02:00:04.235Z,87.12
2022-12-19T02:00:51.273Z,87.22
2022-12-19T02:01:49.010Z,87.24
2022-12-19T02:02:45.754Z,87.78
2022-12-19T02:03:34.277Z,87.89
2022-12-19T02:04:21.783Z,87.96
2022-12-19T02:05:08.977Z,88.02
2022-12-19T02:05:56.564Z,87.94
2022-12-19T02:06:43.535Z,87.66
2022-12-19T02:07:31.932Z,87.42
2022-12-19T02:08:19.017Z,87.39
2022-12-19T02:09:05.901Z,87.13
2022-12-19T02:09:56.999Z,87.21
2022-12-19T02:10:44.364Z,87.39
2022-12-19T02:11:31.477Z,87.41
2022-12-19T02:12:18.392Z,87.64
2022-12-19T02:13:08.437Z,87.79
2022-12-19T02:13:55.356Z,88.20
2022-12-19T02:14:42.546Z,88.14
2022-12-19T02:15:33.559Z,87.99
2022-12-19T02:16:39.409Z,87.91
2022-12-19T02:17:39.988Z,87.97
2022-12-19T02:18:38.940Z,88.13
2022-12-19T02:19:54.120Z,87.91
2022-12-19T02:21:08.269Z,87.73
2022-12-19T02:22:32.366Z,87.74
2022-12-19T02:23:31.167Z,87.59
2022-12-19T02:24:29.383Z,87.21
2022-12-19T02:25:47.359Z,87.39
2022-12-19T02:26:46.922Z,87.52
2022-12-19T02:27:46.042Z,87.97
2022-12-19T02:29:10.362Z,88.28
2022-12-19T02:30:11.115Z,88.53
2022-12-19T02:31:36.671Z,88.68
2022-12-19T02:32:26.225Z,88.58
2022-12-19T02:33:20.456Z,88.68
2022-12-19T02:34:14.222Z,88.60
2022-12-19T02:35:26.526Z,88.94
2022-12-19T02:36:18.297Z,88.95
2022-12-19T02:37:09.180Z,88.26
2022-12-19T02:38:02.574Z,88.02
2022-12-19T02:39:00.270Z,88.00
2022-12-19T02:40:05.349Z,88.03
2022-12-19T02:40:59.033Z,88.92
2022-12-19T02:41:55.364Z,89.33
2022-12-19T02:42:45.774Z,89.40
2022-12-19T02:43:37.037Z,89.47
2022-12-19T02:44:26.570Z,89.72
2022-12-19T02:45:16.801Z,90.03
2022-12-19T02:46:14.401Z,90.05
2022-12-19T02:47:03.042Z,89.88
2022-12-19T02:47:50.032Z,89.83
2022-12-19T02:48:37.052Z,90.17
2022-12-19T02:49:30.717Z,90.33
2022-12-19T02:50:18.356Z,89.84
2022-12-19T02:51:05.516Z,89.67
2022-12-19T02:51:52.453Z,89.60
2022-12-19T02:52:39.315Z,89.44
2022-12-19T02:53:26.335Z,89.79
2022-12-19T02:54:13.267Z,90.03
2022-12-19T02:55:04.028Z,89.92
2022-12-19T02:56:08.057Z,89.58
2022-12-19T02:57:17.487Z,89.82
2022-12-19T02:58:16.329Z,90.41
2022-12-19T02:59:17.817Z,89.65
2022-12-19T03:00:13.603Z,89.40
2022-12-19T03:01:17.088Z,89.56
2022-12-19T03:02:14.175Z,89.78
2022-12-19T03:03:21.984Z,92.03
2022-12-19T03:04:38.091Z,91.82
2022-12-19T03:05:40.380Z,92.46
2022-12-19T03:06:41.273Z,92.38
2022-12-19T03:07:49.433Z,92.06
2022-12-19T03:08:47.686Z,92.80
2022-12-19T03:10:00.224Z,93.65
2022-12-19T03:10:53.748Z,93.14
2022-12-19T03:11:42.633Z,92.86
2022-12-19T03:12:53.022Z,92.71
2022-12-19T03:13:48.222Z,92.76
2022-12-19T03:14:35.827Z,94.58
2022-12-19T03:15:23.384Z,94.50
2022-12-19T03:16:14.061Z,94.65
2022-12-19T03:17:06.103Z,94.77
2022-12-19T03:17:59.238Z,94.79
2022-12-19T03:18:46.297Z,94.80
2022-12-19T03:19:35.260Z,95.46
2022-12-19T03:20:44.566Z,95.42
2022-12-19T03:21:37.650Z,96.70
2022-12-19T03:22:24.638Z,97.51
2022-12-19T03:23:15.309Z,97.28
2022-12-19T03:24:02.766Z,97.23
2022-12-19T03:24:49.738Z,96.91
2022-12-19T03:25:36.661Z,96.60
2022-12-19T03:26:25.808Z,97.10
2022-12-19T03:27:21.196Z,97.36
2022-12-19T03:28:12.749Z,96.85
2022-12-19T03:29:16.563Z,97.29
2022-12-19T03:30:07.153Z,96.84
2022-12-19T03:30:53.922Z,97.11
2022-12-19T03:31:41.771Z,97.07
2022-12-19T03:32:30.367Z,97.06
2022-12-19T03:33:19.330Z,96.88
2022-12-19T03:34:19.471Z,96.72
2022-12-19T03:35:08.965Z,96.26
2022-12-19T03:35:56.803Z,96.24
2022-12-19T03:36:47.346Z,98.51
2022-12-19T03:37:34.821Z,98.25
2022-12-19T03:38:22.193Z,97.92
2022-12-19T03:39:10.719Z,98.06
2022-12-19T03:40:00.387Z,98.08
2022-12-19T03:40:48.421Z,97.53
2022-12-19T03:41:54.816Z,97.49
2022-12-19T03:43:05.344Z,97.62
2022-12-19T03:43:52.420Z,98.56
2022-12-19T03:44:41.564Z,98.62
2022-12-19T03:45:54.622Z,99.09
2022-12-19T03:46:50.923Z,99.15
2022-12-19T03:47:44.956Z,98.93
2022-12-19T03:48:45.620Z,98.72
2022-12-19T03:49:32.666Z,98.76
2022-12-19T03:50:19.766Z,98.75
2022-12-19T03:51:15.908Z,99.32
2022-12-19T03:52:05.406Z,99.54
2022-12-19T03:53:10.629Z,99.41
2022-12-19T03:54:07.951Z,99.70
2022-12-19T03:55:06.815Z,100.00
2022-12-19T03:56:37.073Z,100.00
2022-12-19T03:58:01.019Z,100.00
2022-12-19T03:58:52.197Z,100.00
2022-12-19T03:59:45.229Z,100.00
2022-12-19T04:00:34.782Z,100.00
2022-12-19T04:01:22.007Z,100.00
2022-12-19T04:02:10.465Z,100.00
2022-12-19T04:02:58.036Z,100.00
2022-12-19T04:03:45.344Z,100.00
2022-12-19T04:04:36.568Z,100.00
2022-12-19T04:05:27.603Z,100.00
2022-12-19T04:06:15.218Z,100.00
2022-12-19T04:07:03.825Z,100.00
2022-12-19T04:07:52.937Z,100.00
2022-12-19T04:08:40.253Z,100.00
2022-12-19T04:09:27.387Z,100.00
2022-12-19T04:10:17.389Z,100.00
2022-12-19T04:11:09.667Z,100.00
2022-12-19T04:12:10.339Z,100.00
2022-12-19T04:13:12.938Z,100.00
2022-12-19T04:14:03.467Z,100.00
2022-12-19T04:14:50.496Z,100.00
2022-12-19T04:15:49.207Z,100.00
2022-12-19T04:16:44.427Z,100.00
2022-12-19T04:17:49.808Z,100.00
2022-12-19T04:18:37.949Z,100.00
2022-12-19T04:19:48.849Z,100.00
2022-12-19T04:20:38.331Z,100.00
2022-12-19T04:21:32.881Z,100.00
2022-12-19T04:22:37.232Z,100.00
2022-12-19T04:23:29.363Z,100.00
2022-12-19T04:24:26.813Z,100.00
2022-12-19T04:25:16.803Z,100.00
2022-12-19T04:26:05.356Z,100.00
2022-12-19T04:26:54.431Z,100.00
2022-12-19T04:27:44.941Z,100.00
2022-12-19T04:28:45.975Z,100.00
2022-12-19T04:29:34.980Z,100.00
2022-12-19T04:30:22.018Z,100.00
2022-12-19T04:31:12.164Z,100.00
2022-12-19T04:31:59.409Z,100.00
2022-12-19T04:32:47.101Z,100.00
2022-12-19T04:33:34.088Z,100.00
2022-12-19T04:34:21.734Z,100.00
2022-12-19T04:35:09.632Z,100.00
2022-12-19T04:35:56.479Z,100.00
2022-12-19T04:36:43.398Z,100.00
2022-12-19T04:37:31.446Z,100.00
2022-12-19T04:38:18.360Z,100.00
2022-12-19T04:39:05.386Z,100.00
2022-12-19T04:39:52.269Z,100.00
2022-12-19T04:40:41.523Z,100.00
2022-12-19T04:41:28.800Z,100.00
2022-12-19T04:42:15.669Z,100.00
2022-12-19T04:43:02.638Z,100.00
2022-12-19T04:43:49.543Z,100.00
2022-12-19T04:44:36.448Z,100.00
2022-12-19T04:45:23.404Z,100.00
2022-12-19T04:46:10.689Z,100.00
2022-12-19T04:46:57.627Z,100.00
2022-12-19T04:47:44.559Z,100.00
2022-12-19T04:48:31.511Z,100.00
2022-12-19T04:49:18.570Z,100.00
2022-12-19T04:50:06.255Z,100.00
2022-12-19T04:50:53.260Z,99.99
2022-12-19T04:51:40.148Z,99.89
2022-12-19T04:52:27.059Z,99.53
2022-12-19T04:53:14.028Z,99.55
2022-12-19T04:54:00.985Z,99.38
2022-12-19T04:54:47.946Z,99.27
2022-12-19T04:55:34.949Z,99.37
2022-12-19T04:56:21.853Z,99.51
2022-12-19T04:57:08.887Z,99.49
2022-12-19T04:57:55.856Z,99.32
2022-12-19T04:58:42.849Z,98.91
2022-12-19T04:59:32.188Z,98.94
2022-12-19T05:00:19.199Z,99.04
2022-12-19T05:01:07.698Z,99.13
2022-12-19T05:01:54.823Z,98.63
2022-12-19T05:02:42.125Z,98.25
2022-12-19T05:03:29.289Z,98.26
2022-12-19T05:04:16.245Z,98.14
2022-12-19T05:05:03.318Z,97.91
2022-12-19T05:05:50.216Z,97.93
2022-12-19T05:06:37.379Z,97.90
2022-12-19T05:07:24.318Z,97.92
2022-12-19T05:08:11.206Z,98.08
2022-12-19T05:08:58.246Z,98.04
2022-12-19T05:09:45.120Z,98.12
2022-12-19T05:10:32.082Z,98.19
2022-12-19T05:11:20.089Z,98.01
2022-12-19T05:12:07.300Z,98.06
2022-12-19T05:12:55.146Z,97.85
2022-12-19T05:13:42.236Z,97.55
2022-12-19T05:14:29.160Z,97.51
2022-12-19T05:15:16.404Z,97.62
2022-12-19T05:16:05.871Z,97.42
2022-12-19T05:16:57.226Z,97.27
2022-12-19T05:17:47.447Z,97.19
2022-12-19T05:18:34.738Z,97.07
2022-12-19T05:19:24.487Z,97.16
2022-12-19T05:20:11.899Z,97.25
2022-12-19T05:20:59.136Z,97.12
2022-12-19T05:21:46.016Z,97.05
2022-12-19T05:22:33.135Z,97.05
2022-12-19T05:23:20.528Z,97.12
2022-12-19T05:24:07.747Z,97.18
2022-12-19T05:24:54.686Z,97.05
2022-12-19T05:25:41.545Z,96.79
2022-12-19T05:26:28.430Z,96.51
2022-12-19T05:27:15.428Z,96.54
2022-12-19T05:28:02.306Z,96.55
2022-12-19T05:28:49.206Z,96.38
2022-12-19T05:29:36.076Z,96.09
2022-12-19T05:30:24.726Z,95.60
2022-12-19T05:31:14.418Z,95.25
2022-12-19T05:32:02.096Z,95.23
2022-12-19T05:32:48.975Z,95.64
2022-12-19T05:33:36.422Z,95.94
2022-12-19T05:34:24.639Z,96.18
2022-12-19T05:35:11.636Z,96.37
2022-12-19T05:35:58.676Z,96.56
2022-12-19T05:36:46.895Z,96.48
2022-12-19T05:37:33.776Z,96.37
2022-12-19T05:38:20.689Z,96.34
2022-12-19T05:39:07.546Z,96.17
2022-12-19T05:39:54.466Z,96.22
2022-12-19T05:40:42.767Z,96.52
2022-12-19T05:41:29.724Z,96.22
2022-12-19T05:42:16.543Z,96.14
2022-12-19T05:43:03.489Z,96.21
2022-12-19T05:43:52.818Z,96.11
2022-12-19T05:44:40.004Z,96.16
2022-12-19T05:45:26.906Z,95.89
2022-12-19T05:46:13.917Z,95.73
2022-12-19T05:47:00.905Z,95.94
2022-12-19T05:47:48.174Z,96.17
2022-12-19T05:48:35.562Z,96.35
2022-12-19T05:49:22.418Z,96.28
2022-12-19T05:50:09.965Z,96.42
2022-12-19T05:50:56.914Z,96.39
2022-12-19T05:51:46.986Z,96.28
2022-12-19T05:52:33.875Z,96.48
2022-12-19T05:53:25.755Z,96.37
2022-12-19T05:54:13.105Z,96.26
2022-12-19T05:55:00.263Z,95.91
2022-12-19T05:55:47.126Z,96.18
2022-12-19T05:56:34.031Z,96.26
2022-12-19T05:57:20.911Z,96.25
2022-12-19T05:58:07.782Z,95.90
2022-12-19T05:58:54.906Z,95.60
2022-12-19T05:59:41.902Z,95.54
2022-12-19T06:00:28.805Z,95.62
2022-12-19T06:01:18.553Z,95.96
2022-12-19T06:02:05.639Z,95.95
2022-12-19T06:02:52.659Z,95.92
2022-12-19T06:03:39.950Z,95.90
2022-12-19T06:04:26.853Z,95.89
2022-12-19T06:05:14.086Z,95.49
2022-12-19T06:06:09.672Z,95.50
2022-12-19T06:06:56.591Z,95.58
2022-12-19T06:07:43.496Z,96.09
2022-12-19T06:08:30.462Z,96.31
2022-12-19T06:09:17.360Z,96.47
2022-12-19T06:10:04.847Z,96.55
2022-12-19T06:10:51.813Z,96.29
2022-12-19T06:11:38.719Z,96.19
2022-12-19T06:12:25.660Z,96.26
2022-12-19T06:13:12.520Z,96.35
2022-12-19T06:13:59.469Z,96.17
2022-12-19T06:14:46.362Z,96.37
2022-12-19T06:15:33.285Z,96.30
2022-12-19T06:16:21.644Z,96.42
2022-12-19T06:17:08.604Z,96.60
2022-12-19T06:17:55.562Z,96.70
2022-12-19T06:18:45.035Z,96.49
2022-12-19T06:19:32.281Z,96.26
2022-12-19T06:20:19.181Z,96.45
2022-12-19T06:21:08.043Z,96.75
2022-12-19T06:21:54.982Z,96.63
2022-12-19T06:22:44.631Z,96.64
2022-12-19T06:23:33.243Z,96.44
2022-12-19T06:24:20.132Z,96.21
2022-12-19T06:25:07.964Z,96.19
2022-12-19T06:25:57.623Z,96.10
2022-12-19T06:26:45.020Z,95.77
2022-12-19T06:27:31.908Z,95.91
2022-12-19T06:28:18.861Z,96.33
2022-12-19T06:29:05.763Z,96.38
2022-12-19T06:29:52.724Z,96.26
2022-12-19T06:30:39.610Z,96.64
2022-12-19T06:31:26.615Z,96.83
2022-12-19T06:32:13.554Z,96.84
2022-12-19T06:33:01.198Z,96.87
2022-12-19T06:33:48.093Z,96.82
2022-12-19T06:35:04.661Z,96.78
2022-12-19T06:35:42.298Z,96.61
2022-12-19T06:36:30.781Z,96.65
2022-12-19T06:37:17.783Z,96.92
2022-12-19T06:38:04.687Z,96.65
2022-12-19T06:38:51.998Z,96.43
2022-12-19T06:39:38.948Z,96.46
2022-12-19T06:40:44.730Z,96.97
2022-12-19T06:41:50.573Z,96.89
2022-12-19T06:42:37.512Z,96.97
2022-12-19T06:43:26.005Z,96.69
2022-12-19T06:44:14.667Z,96.46
2022-12-19T06:45:01.630Z,96.54
2022-12-19T06:45:48.529Z,96.52
2022-12-19T06:46:35.434Z,96.41
2022-12-19T06:47:23.324Z,96.32
2022-12-19T06:48:10.252Z,96.06
2022-12-19T06:49:00.015Z,95.79
2022-12-19T06:49:47.034Z,96.12
2022-12-19T06:50:36.111Z,96.52
2022-12-19T06:51:23.462Z,96.71
2022-12-19T06:52:10.321Z,96.91
2022-12-19T06:52:57.190Z,97.19
2022-12-19T06:53:44.187Z,97.32
2022-12-19T06:54:31.674Z,97.25
2022-12-19T06:55:18.910Z,96.90
2022-12-19T06:56:06.120Z,96.70
2022-12-19T06:56:53.021Z,96.57
2022-12-19T06:57:46.186Z,96.40
2022-12-19T06:58:33.787Z,96.42
2022-12-19T06:59:20.818Z,96.38
2022-12-19T07:00:08.498Z,96.28
2022-12-19T07:00:55.502Z,96.01
2022-12-19T07:01:48.589Z,95.78
2022-12-19T07:02:35.586Z,95.62
2022-12-19T07:03:26.048Z,95.71
2022-12-19T07:04:16.100Z,95.88
2022-12-19T07:05:04.731Z,96.21
2022-12-19T07:05:51.700Z,96.21
2022-12-19T07:06:38.978Z,95.98
2022-12-19T07:07:25.883Z,95.75
2022-12-19T07:08:12.793Z,95.86
2022-12-19T07:09:00.321Z,95.36
2022-12-19T07:09:47.229Z,95.44
2022-12-19T07:10:34.233Z,95.28
2022-12-19T07:11:21.118Z,95.09
2022-12-19T07:12:10.177Z,94.80
2022-12-19T07:12:57.078Z,94.20
2022-12-19T07:13:43.988Z,93.86
2022-12-19T07:14:31.007Z,93.74
2022-12-19T07:15:17.876Z,93.44
2022-12-19T07:16:05.842Z,93.10
2022-12-19T07:16:53.733Z,93.21
2022-12-19T07:17:40.843Z,93.15
2022-12-19T07:18:29.540Z,93.18
2022-12-19T07:19:16.736Z,92.99
2022-12-19T07:20:03.968Z,92.35
2022-12-19T07:20:50.998Z,92.48
2022-12-19T07:21:38.383Z,92.81
2022-12-19T07:22:27.749Z,92.53
2022-12-19T07:23:19.701Z,92.74
2022-12-19T07:24:07.494Z,92.46
2022-12-19T07:24:56.325Z,92.22
2022-12-19T07:25:43.279Z,91.71
2022-12-19T07:26:30.296Z,91.21
2022-12-19T07:27:17.191Z,90.94
2022-12-19T07:28:51.417Z,90.58
2022-12-19T07:29:38.291Z,90.46
2022-12-19T07:30:25.189Z,90.26
2022-12-19T07:31:12.852Z,90.17
2022-12-19T07:31:59.961Z,89.76
2022-12-19T07:32:46.851Z,89.75
2022-12-19T07:33:34.045Z,89.51
2022-12-19T07:34:20.976Z,89.75
2022-12-19T07:35:08.371Z,89.49
2022-12-19T07:35:55.291Z,89.74
2022-12-19T07:36:42.207Z,89.79
2022-12-19T07:37:29.128Z,89.59
2022-12-19T07:38:16.415Z,89.40
2022-12-19T07:39:03.400Z,88.77
2022-12-19T07:39:50.571Z,88.32
2022-12-19T07:40:37.503Z,88.21
2022-12-19T07:41:24.446Z,87.84
2022-12-19T07:42:12.355Z,87.74
2022-12-19T07:43:03.574Z,87.52
2022-12-19T07:43:50.476Z,87.40
2022-12-19T07:44:37.394Z,87.17
2022-12-19T07:45:24.297Z,86.80
2022-12-19T07:46:11.466Z,87.07
2022-12-19T07:46:58.413Z,86.80
2022-12-19T07:47:45.386Z,86.88
2022-12-19T07:48:32.290Z,86.85
2022-12-19T07:49:22.622Z,86.76
2022-12-19T07:50:09.891Z,86.69
2022-12-19T07:50:56.789Z,86.16
2022-12-19T07:51:43.708Z,86.22
2022-12-19T07:52:30.657Z,86.24
2022-12-19T07:53:17.592Z,86.68
2022-12-19T07:54:08.257Z,86.78
2022-12-19T07:54:54.997Z,86.77
2022-12-19T07:55:42.240Z,86.19
2022-12-19T07:56:29.138Z,85.79
2022-12-19T07:57:16.185Z,86.25
2022-12-19T07:58:03.257Z,86.33
2022-12-19T07:58:50.248Z,86.22
2022-12-19T07:59:39.414Z,86.40
2022-12-19T08:00:26.444Z,86.59
2022-12-19T08:01:13.489Z,86.63
2022-12-19T08:02:00.621Z,85.90
2022-12-19T08:02:48.159Z,85.09
2022-12-19T08:03:36.177Z,84.71
2022-12-19T08:04:23.226Z,84.58
2022-12-19T08:05:10.440Z,84.59
2022-12-19T08:06:05.480Z,84.69
2022-12-19T08:06:52.361Z,84.92
2022-12-19T08:07:39.291Z,85.21
2022-12-19T08:08:26.418Z,84.99
2022-12-19T08:09:13.719Z,84.18
2022-12-19T08:10:00.790Z,84.13
2022-12-19T08:10:47.756Z,84.14
2022-12-19T08:11:34.741Z,84.39
2022-12-19T08:12:21.744Z,83.53
2022-12-19T08:13:09.246Z,83.66
2022-12-19T08:13:57.366Z,83.20
2022-12-19T08:14:44.870Z,83.86
2022-12-19T08:15:31.855Z,84.11
2022-12-19T08:16:18.833Z,83.79
2022-12-19T08:17:21.778Z,84.45
2022-12-19T08:18:08.904Z,83.98
2022-12-19T08:18:55.974Z,82.22
2022-12-19T08:19:43.060Z,82.46
2022-12-19T08:20:30.395Z,83.09
2022-12-19T08:21:17.382Z,83.17
2022-12-19T08:22:04.305Z,82.72
2022-12-19T08:22:51.724Z,83.23
2022-12-19T08:23:41.606Z,84.07
2022-12-19T08:24:31.118Z,84.44
2022-12-19T08:25:17.992Z,83.60
2022-12-19T08:26:07.603Z,82.85
2022-12-19T08:26:54.556Z,82.67
2022-12-19T08:27:43.026Z,82.60
2022-12-19T08:28:30.946Z,82.19
2022-12-19T08:29:17.864Z,81.35
2022-12-19T08:30:05.265Z,81.67
2022-12-19T08:30:52.334Z,81.18
2022-12-19T08:31:39.286Z,80.64
2022-12-19T08:32:26.227Z,81.33
2022-12-19T08:33:13.200Z,81.52
2022-12-19T08:34:00.205Z,81.85
2022-12-19T08:34:47.149Z,80.72
2022-12-19T08:35:34.205Z,79.79
2022-12-19T08:36:21.305Z,80.02
2022-12-19T08:37:08.976Z,79.62
2022-12-19T08:37:55.878Z,80.20
2022-12-19T08:38:42.829Z,80.82
2022-12-19T08:39:29.736Z,80.06
2022-12-19T08:40:16.685Z,80.61
2022-12-19T08:41:04.448Z,80.48
2022-12-19T08:41:51.425Z,80.53
2022-12-19T08:42:38.297Z,80.57
2022-12-19T08:43:25.531Z,80.97
2022-12-19T08:44:13.521Z,81.31
2022-12-19T08:45:00.430Z,81.46
2022-12-19T08:45:50.640Z,80.31
2022-12-19T08:46:37.646Z,80.24
2022-12-19T08:47:24.671Z,80.93
2022-12-19T08:48:11.758Z,81.61
2022-12-19T08:48:58.641Z,81.17
2022-12-19T08:49:46.901Z,81.43
2022-12-19T08:50:33.779Z,80.19
2022-12-19T08:51:22.145Z,80.91
2022-12-19T08:52:09.020Z,80.59
2022-12-19T08:52:56.055Z,80.04
2022-12-19T08:53:44.316Z,79.79
2022-12-19T08:54:31.212Z,79.18
2022-12-19T08:55:18.259Z,79.60
2022-12-19T08:56:17.077Z,79.60
2022-12-19T08:57:04.139Z,79.58
2022-12-19T08:57:51.016Z,79.91
2022-12-19T08:58:38.007Z,79.51
2022-12-19T08:59:31.622Z,78.62
2022-12-19T09:00:19.235Z,78.61
2022-12-19T09:01:13.646Z,79.75
2022-12-19T09:02:01.305Z,79.21
2022-12-19T09:02:48.611Z,78.91
2022-12-19T09:03:45.851Z,79.88
2022-12-19T09:06:00.334Z,79.13
2022-12-19T09:06:07.023Z,79.23
2022-12-19T09:06:57.360Z,78.94
2022-12-19T09:07:44.307Z,79.03
2022-12-19T09:08:32.360Z,78.64
2022-12-19T09:09:19.257Z,78.51
2022-12-19T09:10:06.587Z,79.11
2022-12-19T09:11:05.935Z,78.51
2022-12-19T09:11:52.881Z,78.52
2022-12-19T09:12:39.902Z,78.63
2022-12-19T09:13:30.510Z,78.70
2022-12-19T09:14:21.292Z,78.60
2022-12-19T09:15:08.923Z,78.72
2022-12-19T09:16:07.189Z,78.83
2022-12-19T09:16:54.137Z,78.91
2022-12-19T09:17:41.077Z,78.66
2022-12-19T09:18:28.916Z,78.18
2022-12-19T09:19:16.680Z,78.12
2022-12-19T09:20:03.778Z,79.30
2022-12-19T09:20:54.281Z,79.99
2022-12-19T09:21:41.390Z,78.45
2022-12-19T09:22:29.556Z,78.31
2022-12-19T09:23:16.621Z,78.25
2022-12-19T09:24:07.925Z,79.42
2022-12-19T09:24:55.447Z,79.21
2022-12-19T09:25:42.326Z,78.41
2022-12-19T09:26:29.198Z,78.11
2022-12-19T09:27:20.753Z,78.39
2022-12-19T09:29:20.749Z,78.24
2022-12-19T09:30:09.246Z,78.61
2022-12-19T09:31:08.426Z,78.22
2022-12-19T09:31:57.053Z,78.42
2022-12-19T09:32:44.218Z,78.58
2022-12-19T09:33:35.490Z,78.78
2022-12-19T09:34:36.956Z,78.01
2022-12-19T09:35:30.035Z,78.39
2022-12-19T09:36:24.516Z,78.20
2022-12-19T09:37:16.847Z,79.18
2022-12-19T09:38:06.752Z,79.75
2022-12-19T09:38:55.038Z,79.71
2022-12-19T09:39:42.070Z,78.83
2022-12-19T09:40:31.784Z,78.34
2022-12-19T09:41:52.630Z,78.31
2022-12-19T09:42:46.673Z,77.58
2022-12-19T09:43:41.253Z,77.79
2022-12-19T09:44:40.776Z,77.10
2022-12-19T09:45:36.643Z,76.77
2022-12-19T09:47:09.690Z,77.68
2022-12-19T09:47:59.036Z,77.78
2022-12-19T09:48:50.922Z,77.18
2022-12-19T09:49:44.208Z,77.30
2022-12-19T09:50:31.031Z,78.32
2022-12-19T09:51:36.020Z,77.80
2022-12-19T09:52:32.856Z,76.28
2022-12-19T09:53:33.756Z,76.49
2022-12-19T09:54:28.358Z,77.92
2022-12-19T09:55:41.723Z,77.91
2022-12-19T09:56:33.093Z,77.94
2022-12-19T09:58:08.760Z,76.91
2022-12-19T09:59:01.175Z,76.40
2022-12-19T10:00:21.504Z,76.97
2022-12-19T10:01:21.561Z,76.13
2022-12-19T10:02:36.835Z,75.83
2022-12-19T10:03:40.346Z,76.27
2022-12-19T10:04:28.644Z,76.43
2022-12-19T10:07:11.875Z,75.94
2022-12-19T10:07:11.921Z,75.11
2022-12-19T10:08:10.379Z,74.88
2022-12-19T10:09:46.329Z,73.79
2022-12-19T10:12:34.812Z,75.28
2022-12-19T10:12:42.573Z,75.59
2022-12-19T10:13:13.275Z,75.67
2022-12-19T10:14:28.070Z,75.11
2022-12-19T10:15:32.263Z,75.80
2022-12-19T10:16:25.075Z,74.85
2022-12-19T10:17:25.353Z,74.13
2022-12-19T10:18:31.037Z,75.90
2022-12-19T10:19:27.549Z,75.38
2022-12-19T10:20:41.009Z,74.73
2022-12-19T10:22:07.399Z,75.55
2022-12-19T10:22:50.300Z,75.14
2022-12-19T10:23:48.669Z,77.01
2022-12-19T10:25:09.393Z,76.94
2022-12-19T10:26:19.546Z,76.07
2022-12-19T10:27:59.456Z,75.54
2022-12-19T10:28:54.719Z,75.48
2022-12-19T10:30:10.156Z,74.77
2022-12-19T10:31:22.048Z,72.96
2022-12-19T10:32:51.452Z,73.43
2022-12-19T10:33:52.445Z,75.92
2022-12-19T10:34:44.422Z,75.26
2022-12-19T10:35:35.050Z,73.74
2022-12-19T10:36:42.011Z,74.29
2022-12-19T10:37:47.320Z,74.52
2022-12-19T10:38:51.242Z,73.36
2022-12-19T10:39:53.812Z,73.71
2022-12-19T10:40:53.971Z,74.52
2022-12-19T10:41:44.219Z,74.52
2022-12-19T10:42:51.824Z,75.04
2022-12-19T10:44:02.870Z,75.10
2022-12-19T10:44:49.639Z,74.54
2022-12-19T10:45:47.424Z,73.67
2022-12-19T10:46:40.532Z,74.22
2022-12-19T10:47:29.897Z,74.35
2022-12-19T10:48:21.988Z,74.88
2022-12-19T10:49:22.247Z,74.20
2022-12-19T10:50:22.439Z,73.29
2022-12-19T10:51:23.337Z,73.07
2022-12-19T10:52:11.780Z,73.41
2022-12-19T10:53:04.716Z,73.62
2022-12-19T10:53:57.409Z,74.41
2022-12-19T10:54:44.390Z,72.67
2022-12-19T10:55:40.619Z,72.42
2022-12-19T10:56:36.797Z,72.82
2022-12-19T10:57:29.334Z,72.03
2022-12-19T10:58:21.888Z,72.32
2022-12-19T10:59:17.127Z,71.98